Wappingers Falls, NY (12590)

1:48 AM EDT on April 01, 2015 (GMT -0400)
Vitek Backyard | | Change Station
CLOSE
Current Station
Personal Weather Station
Location: Hopewell Junction, NY
Elevation: 266 ft
Nearby Weather Stations
Active Advisory: Special Statement

Elev 266 ft 41.59 °N, 73.83 °W | Updated 8 minutes ago

Light Rain
Light Rain Mist
32.5 °F
Feels Like 32 °F
N
1.1
Wind Variable Wind from East

Today
High -- | Low -- °F
--% Chance of Precip.
Yesterday
High -- | Low -- °F
Precip. -- in
6:38 AM 7:20 PM
Waxing Gibbous, 91% visible
Pressure 29.85 in
Visibility 5.0 miles
Clouds Overcast 300 ft
Windchill 32 °F
Dew Point 27 °F
Humidity 81%
Rainfall 0.00 in
Snow Depth Not available.
UV 0 out of 12
Pollen 7.00 out of 12
Air Quality Not available.
Flu Activity Not available.
SPECI KPOU 010514Z AUTO 32004KT 5SM -RA BR OVC003 00/M01 A2985 RMK AO2 P0000 T00001011

More Conditions Fewer Conditions

Pressure 29.85 in
Visibility 5.0 miles
Clouds Overcast 300 ft
Windchill 32 °F
Dew Point 27 °F
Humidity 81%
Rainfall 0.00 in
Snow Depth Not available.
UV 0 out of 12
Pollen 7.00 out of 12
Air Quality Not available.
Flu Activity Not available.
SPECI KPOU 010514Z AUTO 32004KT 5SM -RA BR OVC003 00/M01 A2985 RMK AO2 P0000 T00001011

More Conditions Fewer Conditions

10-Day Weather Forecast

Almanac

Astronomy

Apr. 01, 2015 Rise Set
Actual Time
Civil Twilight
Nautical Twilight
Astronomical Twilight
Moon
Length of Visible Light
Length of Day
Tomorrow will be .
, % of the Moon is Illuminated

Today's Extremes

State Highs State Lows

Community

WunderPhotos

Upload Photos

1,809,919 photos uploaded!

WunderBlogs® & News

Nearby

Air Quality

  Air Quality AQ Index Pollutant
Not available.

Snow Depth

Station Depth Elevation

Earthquake Activity

City Distance Mag. Time & Date
Minimum magnitude displayed is 2.5.

Coastal Water Temperatures

Place Temperature

Stations

Nearby Weather Stations

Station Location Temp. Windchill Dew Point Humidity Wind Precip. Elev Updated Type
                   
Special Statement
Statement as of 10:31 PM EDT on March 31, 2015

... Areas of black ice possible overnight...
while precipitation has ended across the region... skies were
clearing which is allowing temperatures to drop below freezing
across Ulster... Dutchess and Litchfield counties. The combination
of wet roadways and walkways with below freezing temperatures may
result in black ice developing on untreated surfaces. Motorists
and pedestrians are urged to travel with care overnight into
Wednesday morning.